Decoded Metar for K2C8 ( in ) (IATA:) | Meteo·Mobile Aviation Weather
aviador You're here:

K2C8 Decoded Metar

in
Report Time2019-03-23 08:35:00
UTC Time2019-03-23 08:53:10
Flight Rules vfr VFR
Wind180° at 09 kt
W.Rank180° ranks 5
Current wind is below 180° avg. (9.5)
Visibility9999 m
Phenomena:N/A
Clouds:N/A
Expected CloudBase > 400 ft AGL from Temp-Dew spread
CeilingNone
Temp-5°C
Dew Point-6°C (93% RH)
AAT-10.9°C
QNH1019 hPa
Raw Report
K2C8 230835Z AUTO 18009KT 10SM CLR M05/M06 A3008 RMK AO2=

Extra information for K2C8:More info

Social comments